Аэропорт: Кневичи. Владивосток

ICAO: UHWW

METAR:
2018/07/16 20:00
UHWW 162000Z 24003MPS 6000 -SHRA BKN004 BKN020CB 18/18 Q1008 R25L/290060 NOSIG RMK QBB120 MT OBSC QFE755
METAR:
2018/07/16 18:21
TAF UHWW 161700Z 1618/1718 12003MPS 3100 -SHRA BR BKN011 BKN017CB 
      TEMPO 1618/1703 BKN003 BKN013CB 
     FM170400 24003MPS 5000 -SHRA BKN020CB